Latest Weather Observations for Grove

IDT60801

Issued at 7:05 pm EDT Thursday 27 November 2014 (issued every 30 minutes, with the page automatically refreshed every 10 minutes)

About weather observations | Map of weather stations | Latest weather observations for TAS | Other Formats
Station Details ID: 094220 Name: GROVE (RESEARCH STATION) Lat: -42.99 Lon: 147.07 Height: 65.0 m
Data from the previous 72 hours. | See also: Recent months at Grove
Date/Time
EDT
Temp
°C
App
Temp
°C
Dew
Point
Rel
Hum
%
Delta-T
°C
Wind Press
QNH
hPa
Press
MSL
hPa
Rain
since 9 am
mm
Dir
 
Spd
km/h
Gust
km/h
Spd
kts
Gust
kts
27/07:00pm 15.0 10.5 2.2 42 5.7 SW 15 20 8 11 - - 0.0
27/06:30pm 15.5 11.4 2.3 41 5.9 SW 13 22 7 12 - - 0.0
27/06:00pm 15.9 10.7 2.3 40 6.1 SW 19 32 10 17 - - 0.0
27/05:30pm 16.2 10.8 2.5 39 6.2 WSW 20 30 11 16 - - 0.0
27/05:00pm 16.2 11.4 2.8 40 6.1 SW 17 28 9 15 - - 0.0
27/04:30pm 16.8 11.7 3.1 40 6.3 WSW 19 28 10 15 - - 0.0
27/04:00pm 16.2 11.1 2.8 40 6.1 SW 19 32 10 17 - - 0.0
27/03:30pm 16.0 11.2 2.8 41 6.0 SW 17 30 9 16 - - 0.0
27/03:00pm 15.9 9.8 2.9 41 5.9 WSW 24 39 13 21 - - 0.0
27/02:30pm 16.7 10.6 4.7 45 5.7 WSW 26 39 14 21 - - 0.0
27/02:00pm 15.7 9.0 3.8 45 5.5 SW 28 41 15 22 - - 0.0
27/01:30pm 15.1 9.8 3.2 45 5.4 SW 20 35 11 19 - - 0.0
27/01:00pm 14.8 9.6 3.4 46 5.2 SW 20 33 11 18 - - 0.0
27/12:30pm 15.6 8.9 3.7 45 5.5 WSW 28 44 15 24 - - 0.0
27/12:00pm 13.5 7.4 2.7 48 4.8 WSW 24 41 13 22 - - 0.0
27/11:30am 12.9 6.4 2.7 50 4.5 WSW 26 44 14 24 - - 0.0
27/11:00am 12.9 7.1 2.4 49 4.6 SW 22 37 12 20 - - 0.0
27/10:30am 12.6 7.2 2.6 50 4.4 WSW 20 35 11 19 - - 0.0
27/10:00am 11.8 5.4 3.2 55 3.8 SW 26 41 14 22 - - 0.0
27/09:30am 11.6 6.3 3.2 56 3.7 SW 20 32 11 17 - - 0.0
27/09:00am 11.9 7.1 2.8 53 4.0 SW 17 32 9 17 - - 0.2
27/08:30am 11.9 7.0 2.2 51 4.2 SW 17 24 9 13 - - 0.2
27/08:00am 11.9 7.8 2.5 52 4.1 SW 13 22 7 12 - - 0.2
27/07:30am 11.5 7.0 1.9 51 4.1 SW 15 26 8 14 - - 0.2
27/07:00am 10.5 6.0 2.3 57 3.5 SW 15 26 8 14 - - 0.2
27/06:30am 10.4 7.1 2.5 58 3.4 SW 9 20 5 11 - - 0.2
27/06:00am 9.9 7.2 2.9 62 3.0 WSW 6 11 3 6 - - 0.2
27/05:30am 9.4 6.6 2.9 64 2.8 WSW 7 15 4 8 - - 0.2
27/05:00am 9.6 6.7 2.6 61 3.0 WSW 7 13 4 7 - - 0.2
27/04:30am 10.0 6.9 1.6 56 3.5 SW 7 17 4 9 - - 0.2
27/04:00am 10.0 5.4 1.6 56 3.5 WSW 15 20 8 11 - - 0.2
27/03:30am 10.0 5.8 1.9 57 3.4 WSW 13 17 7 9 - - 0.2
27/03:00am 10.1 6.4 2.1 57 3.4 SSW 11 15 6 8 - - 0.2
27/02:30am 10.0 6.7 2.5 59 3.2 SW 9 13 5 7 - - 0.2
27/02:00am 10.2 6.1 2.2 57 3.4 SW 13 30 7 16 - - 0.2
27/01:30am 9.7 5.7 2.7 61 3.0 WSW 13 20 7 11 - - 0.2
27/01:00am 9.6 5.6 2.8 62 2.9 WSW 13 19 7 10 - - 0.2
27/12:30am 10.4 4.5 1.6 54 3.7 WSW 22 33 12 18 - - 0.2
27/12:00am 10.3 4.7 3.2 61 3.1 WSW 22 37 12 20 - - 0.2
 
Date/Time
EDT
Temp
°C
App
Temp
°C
Dew
Point
Rel
Hum
%
Delta-T
°C
Wind Press
QNH
hPa
Press
MSL
hPa
Rain
since 9 am
mm
Dir
 
Spd
km/h
Gust
km/h
Spd
kts
Gust
kts
26/11:30pm 9.9 5.2 3.2 63 2.9 WSW 17 24 9 13 - - 0.2
26/11:00pm 9.8 5.5 3.1 63 2.9 SW 15 24 8 13 - - 0.2
26/10:30pm 10.3 5.4 2.3 57 3.4 WSW 17 24 9 13 - - 0.2
26/10:00pm 10.5 6.4 2.3 57 3.5 WSW 13 22 7 12 - - 0.2
26/09:30pm 11.0 7.3 2.4 55 3.7 WSW 11 19 6 10 - - 0.2
26/09:00pm 11.1 6.6 2.2 54 3.8 SW 15 26 8 14 - - 0.2
26/08:30pm 11.4 5.5 1.8 51 4.1 WSW 22 39 12 21 - - 0.2
26/08:00pm 11.5 5.3 1.9 51 4.1 WSW 24 43 13 23 - - 0.2
26/07:30pm 11.9 5.5 3.0 54 3.9 WSW 26 41 14 22 - - 0.2
26/07:00pm 12.7 7.2 3.8 54 4.0 WSW 22 37 12 20 - - 0.2
26/06:46pm 12.8 6.1 3.7 54 4.1 WSW 28 46 15 25 - - 0.2
26/06:30pm 12.3 5.4 2.7 52 4.2 WSW 28 41 15 22 - - 0.2
26/06:00pm 12.3 5.7 4.1 57 3.7 WSW 28 39 15 21 - - 0.2
26/05:30pm 13.7 7.4 3.8 51 4.5 WSW 26 39 14 21 - - 0.2
26/05:08pm 13.4 6.8 4.0 53 4.3 WSW 28 46 15 25 - - 0.2
26/05:00pm 13.9 8.0 4.1 51 4.5 WSW 24 43 13 23 - - 0.2
26/04:31pm 14.0 7.3 3.4 49 4.8 WSW 28 46 15 25 - - 0.2
26/04:30pm 14.3 7.6 3.5 48 4.9 W 28 41 15 22 - - 0.2
26/04:09pm 14.3 7.2 3.5 48 4.9 WSW 30 52 16 28 - - 0.2
26/04:00pm 13.8 7.1 3.7 50 4.6 SW 28 41 15 22 - - 0.2
26/03:30pm 14.5 9.2 4.9 52 4.5 WSW 22 35 12 19 - - 0.2
26/03:00pm 13.2 8.6 8.2 71 2.5 WSW 22 32 12 17 - - 0.2
26/02:30pm 15.6 9.8 4.5 47 5.2 WSW 24 41 13 22 - - 0.2
26/02:00pm 14.7 8.5 4.4 50 4.8 WSW 26 41 14 22 - - 0.2
26/01:54pm 14.7 8.2 4.9 52 4.6 WSW 28 46 15 25 - - 0.2
26/01:30pm 14.2 7.8 5.3 55 4.2 WSW 28 37 15 20 - - 0.2
26/01:18pm 14.8 8.1 3.9 48 5.0 WSW 28 50 15 27 - - 0.2
26/01:00pm 14.7 9.9 5.7 55 4.3 WSW 20 35 11 19 - - 0.2
26/12:30pm 13.4 6.6 5.3 58 3.8 WSW 30 44 16 24 - - 0.2
26/12:08pm 14.0 7.4 4.2 51 4.5 WSW 28 46 15 25 - - 0.2
26/12:00pm 13.5 6.6 4.6 55 4.1 WSW 30 46 16 25 - - 0.2
26/11:42am 13.2 6.8 5.0 57 3.8 WSW 28 52 15 28 - - 0.2
26/11:30am 12.6 7.6 6.5 66 2.9 WSW 22 33 12 18 - - 0.2
26/11:00am 13.1 6.9 4.1 54 4.1 WSW 26 43 14 23 - - 0.0
26/10:30am 13.0 7.2 4.5 56 3.9 WSW 24 39 13 21 - - 0.0
26/10:08am 13.0 6.4 4.0 54 4.1 WSW 28 48 15 26 - - 0.0
26/10:00am 13.4 6.8 4.2 53 4.2 WSW 28 43 15 23 - - 0.0
26/09:54am 12.7 6.0 3.8 54 4.0 WSW 28 46 15 25 - - 0.0
26/09:30am 13.6 8.1 4.2 53 4.3 WSW 22 39 12 21 - - 0.0
26/09:00am 13.1 5.8 2.4 48 4.7 WSW 30 43 16 23 - - 0.2
26/08:41am 12.7 5.6 1.2 45 4.9 WSW 28 46 15 25 - - 0.2
26/08:30am 12.5 6.2 1.8 48 4.6 WSW 24 37 13 20 - - 0.2
26/08:00am 12.1 6.8 1.9 49 4.4 SW 19 35 10 19 - - 0.2
26/07:30am 11.3 6.8 2.2 53 3.9 WSW 15 32 8 17 - - 0.2
26/07:00am 10.6 4.8 2.2 56 3.6 SW 22 37 12 20 - - 0.2
26/06:51am 10.6 3.6 2.2 56 3.6 SW 28 48 15 26 - - 0.2
26/06:50am 10.7 2.9 2.0 55 3.7 SW 32 48 17 26 - - 0.2
26/06:30am 10.4 6.6 1.9 55 3.6 SW 11 26 6 14 - - 0.2
26/06:00am 10.5 6.2 1.1 52 3.9 SW 13 41 7 22 - - 0.2
26/05:30am 10.7 5.6 0.8 50 4.1 SW 17 33 9 18 - - 0.2
26/05:00am 10.9 5.4 2.0 54 3.8 WSW 20 37 11 20 - - 0.2
26/04:30am 10.4 5.4 4.6 67 2.6 SW 20 33 11 18 - - 0.2
26/04:00am 10.5 4.4 5.0 69 2.5 SW 26 44 14 24 - - 0.2
26/03:34am 11.1 4.8 5.7 69 2.5 SW 28 46 15 25 - - 0.2
26/03:30am 11.4 6.3 5.8 68 2.6 SW 22 44 12 24 - - 0.2
26/03:00am 11.5 7.2 7.1 74 2.1 SW 19 39 10 21 - - 0.2
26/02:30am 11.3 8.4 8.0 80 1.6 SW 13 22 7 12 - - 0.2
26/02:00am 12.2 7.4 7.2 71 2.4 WSW 22 37 12 20 - - 0.2
26/01:30am 13.1 8.9 5.7 61 3.5 WSW 17 30 9 16 - - 0.2
26/01:00am 12.6 9.5 5.6 62 3.3 W 11 24 6 13 - - 0.2
26/12:30am 12.5 9.3 5.2 61 3.4 WNW 11 19 6 10 - - 0.2
26/12:00am 12.4 7.6 4.8 60 3.5 NW 19 22 10 12 - - 0.2
 
Date/Time
EDT
Temp
°C
App
Temp
°C
Dew
Point
Rel
Hum
%
Delta-T
°C
Wind Press
QNH
hPa
Press
MSL
hPa
Rain
since 9 am
mm
Dir
 
Spd
km/h
Gust
km/h
Spd
kts
Gust
kts
25/11:30pm 12.2 8.1 4.5 59 3.5 NW 15 20 8 11 - - 0.2
25/11:00pm 12.3 9.9 4.4 58 3.6 WNW 6 13 3 7 - - 0.2
25/10:30pm 12.4 9.7 3.7 55 3.9 S 7 13 4 7 - - 0.2
25/10:00pm 12.3 9.7 4.1 57 3.7 W 7 19 4 10 - - 0.2
25/09:30pm 12.1 8.3 4.1 58 3.6 W 13 24 7 13 - - 0.2
25/09:00pm 12.2 9.0 2.9 53 4.1 W 9 17 5 9 - - 0.2
25/08:30pm 12.2 7.8 2.6 52 4.2 W 15 28 8 15 - - 0.2
25/08:00pm 12.3 8.2 2.4 51 4.3 WSW 13 19 7 10 - - 0.2
25/07:30pm 12.5 7.9 1.5 47 4.7 WSW 15 24 8 13 - - 0.2
25/07:00pm 12.6 6.7 1.7 47 4.7 W 22 43 12 23 - - 0.2
25/06:30pm 13.1 8.8 3.5 52 4.3 WSW 15 26 8 14 - - 0.2
25/06:00pm 12.2 7.2 4.5 59 3.5 W 20 37 11 20 - - 0.2
25/05:30pm 13.0 7.7 3.1 51 4.4 W 20 37 11 20 - - 0.2
25/05:00pm 13.0 7.3 3.1 51 4.4 W 22 46 12 25 - - 0.2
25/04:30pm 12.8 7.2 5.3 60 3.5 WSW 24 41 13 22 - - 0.0
25/04:00pm 14.0 9.3 5.3 55 4.1 WSW 19 30 10 16 - - 0.0
25/03:32pm 15.0 8.6 5.0 51 4.7 WSW 28 50 15 27 - - 0.0
25/03:30pm 14.7 9.2 5.7 55 4.3 WSW 24 50 13 27 - - 0.0
25/03:03pm 15.6 9.1 4.5 47 5.2 SW 28 46 15 25 - - 0.0
25/03:00pm 15.0 10.1 5.0 51 4.7 W 20 39 11 21 - - 0.0
25/02:47pm 14.8 7.7 5.3 53 4.5 W 32 50 17 27 - - 0.0
25/02:30pm 14.5 8.9 5.4 54 4.3 W 24 41 13 22 - - 0.0
25/02:00pm 15.0 8.5 4.8 50 4.8 W 28 50 15 27 - - 0.0
25/01:57pm 15.0 8.5 4.5 49 4.9 W 28 50 15 27 - - 0.0
25/01:30pm 15.6 9.9 5.1 49 5.0 W 24 39 13 21 - - 0.0
25/01:19pm 15.1 8.6 4.6 49 4.9 WSW 28 48 15 26 - - 0.0
25/01:00pm 16.4 11.2 5.6 49 5.2 W 22 39 12 21 - - 0.0
25/12:30pm 14.5 8.9 5.2 53 4.4 SW 24 43 13 23 - - 0.0
25/12:00pm 14.2 7.4 5.3 55 4.2 WSW 30 48 16 26 - - 0.0
25/11:58am 14.2 7.9 5.5 56 4.1 W 28 48 15 26 - - 0.0
25/11:30am 14.8 9.4 6.3 56 4.1 W 24 43 13 23 - - 0.0
25/11:17am 13.6 7.3 5.5 58 3.8 W 28 46 15 25 - - 0.0
25/11:00am 14.2 8.0 4.2 51 4.6 SW 26 48 14 26 - - 0.0
25/10:32am 14.0 7.5 4.8 54 4.3 WSW 28 46 15 25 - - 0.0
25/10:30am 13.9 7.8 4.6 53 4.3 SW 26 43 14 23 - - 0.0
25/10:00am 13.0 7.6 4.5 56 3.9 SW 22 39 12 21 - - 0.0
25/09:30am 11.8 7.0 4.5 61 3.3 SW 19 33 10 18 - - 0.0
25/09:00am 12.3 6.9 4.7 60 3.5 SW 22 35 12 19 - - 1.6
25/08:30am 12.4 6.2 4.3 57 3.7 SW 26 44 14 24 - - 1.6
25/08:02am 12.1 4.4 2.5 52 4.2 WSW 32 50 17 27 - - 1.6
25/08:00am 12.0 4.4 2.9 53 4.0 WSW 32 48 17 26 - - 1.6
25/07:37am 12.3 4.7 3.0 53 4.1 SW 32 54 17 29 - - 1.6
25/07:30am 12.2 5.3 2.6 52 4.2 SW 28 39 15 21 - - 1.6
25/07:00am 11.9 5.2 3.6 57 3.7 WSW 28 50 15 27 - - 1.6
25/06:52am 11.9 5.1 3.3 55 3.8 WSW 28 48 15 26 - - 1.6
25/06:30am 11.4 5.5 3.8 59 3.4 WSW 24 41 13 22 - - 1.6
25/06:00am 11.2 6.3 4.1 61 3.2 WSW 19 41 10 22 - - 1.6
25/05:30am 11.1 4.9 4.5 64 3.0 WSW 26 44 14 24 - - 1.6
25/05:00am 10.9 6.0 5.0 67 2.7 W 20 43 11 23 - - 1.6
25/04:30am 11.3 5.9 4.7 64 3.0 WSW 22 39 12 21 - - 1.6
25/04:02am 11.7 5.0 3.9 59 3.5 WSW 28 54 15 29 - - 1.6
25/04:00am 11.9 5.9 3.3 55 3.8 WSW 24 41 13 22 - - 1.6
25/03:30am 11.7 5.7 3.3 56 3.7 WSW 24 43 13 23 - - 1.6
25/03:17am 11.7 4.9 3.3 56 3.7 WSW 28 50 15 27 - - 1.6
25/03:00am 11.8 6.2 3.2 55 3.8 WSW 22 54 12 29 - - 1.6
25/02:30am 12.1 6.5 3.6 56 3.8 WSW 22 41 12 22 - - 1.6
25/02:00am 11.9 8.5 3.9 58 3.6 NNW 11 28 6 15 - - 1.6
25/01:30am 11.9 7.1 2.5 52 4.1 W 17 35 9 19 - - 1.6
25/01:00am 11.8 7.4 2.6 53 4.0 W 15 22 8 12 - - 1.6
25/12:30am 11.2 7.2 2.7 56 3.7 W 13 26 7 14 - - 1.6
25/12:00am 11.7 6.4 2.8 54 3.9 W 20 32 11 17 - - 1.6
 
Date/Time
EDT
Temp
°C
App
Temp
°C
Dew
Point
Rel
Hum
%
Delta-T
°C
Wind Press
QNH
hPa
Press
MSL
hPa
Rain
since 9 am
mm
Dir
 
Spd
km/h
Gust
km/h
Spd
kts
Gust
kts
24/11:30pm 11.5 7.5 3.1 56 3.7 W 13 24 7 13 - - 1.6
24/11:00pm 11.3 7.0 3.1 57 3.6 W 15 30 8 16 - - 1.6
24/10:30pm 11.0 7.0 3.0 58 3.5 NW 13 26 7 14 - - 1.6
24/10:00pm 11.6 6.8 2.6 54 3.9 W 17 32 9 17 - - 1.6
24/09:30pm 11.7 7.3 2.8 54 3.9 W 15 26 8 14 - - 1.6
24/09:00pm 12.2 7.9 3.2 54 4.0 WNW 15 28 8 15 - - 1.6
24/08:30pm 12.6 7.6 3.4 53 4.1 W 19 28 10 15 - - 1.6
24/08:00pm 13.5 9.2 3.5 51 4.5 W 15 26 8 14 - - 1.6
24/07:30pm 13.9 10.3 6.9 62 3.4 SW 15 24 8 13 - - 1.6

Other Formats:

Comma delimited format used in spreadsheet applications
http://www.bom.gov.au/fwo/IDT60801/IDT60801.95977.axf

JavaScript Object Notation format (JSON) in row-major order
http://www.bom.gov.au/fwo/IDT60801/IDT60801.95977.json